Sunday, October 21, 2018, 10:29 PM CDT
Back to Local

KORD, Chicago O'hare International

Location: Des Plaines, IL, United States Lat: 41.983
Local Time: 10:29 PM CDT ( 3:29 GMT) Lon: -87.917
Time Zone: US/Central Elev: 669 ft

Show me the last for .
Show Coded

Time T Td Feel RH Dir Speed Gust Alt SLP Vis Weather Sky Remarks
2018-10-21 21:51 45 25 40 45 220° 9 - 30.11 30.12 10 FEW250 None
2018-10-21 20:51 46 24 41 41 230° 9 - 30.10 30.12 10 FEW250 None
2018-10-21 19:51 47 23 42 38 210° 10 - 30.09 30.11 10 CLR None
2018-10-21 18:51 47 23 43 38 190° 8 - 30.10 30.12 10 FEW120 6-hr Min Temp (7pm): 46.0°F
6-hr Max Temp (7pm): 51.1°F
2018-10-21 17:51 49 21 45 32 210° 9 - 30.12 30.13 10 FEW110 None
2018-10-21 16:51 50 22 45 32 210° 13 - 30.12 30.14 10 FEW110 None
2018-10-21 15:51 51 22 - 31 230° 13 - 30.16 30.17 10 FEW110 None
2018-10-21 14:51 49 20 41 31 210° 16 25 30.19 30.21 10 FEW100 None
2018-10-21 13:51 47 21 42 35 230° 10 - 30.23 30.24 10 FEW035 FEW100 None
2018-10-21 12:51 46 21 38 36 220° 12 21 30.28 30.30 10 FEW035 FEW060 6-hr Min Temp (1pm): 28.0°F
6-hr Max Temp (1pm): 46.0°F
2018-10-21 11:51 43 20 34 39 250° 10 23 30.32 30.34 10 FEW035 None
2018-10-21 10:51 40 20 34 44 220° 9 - 30.34 30.35 10 FEW035 None
2018-10-21 09:51 38 20 31 47 260° 10 - 30.36 30.37 10 FEW035 None
2018-10-21 08:51 34 22 29 60 280° 6 - 30.36 30.38 10 FEW035 None
2018-10-21 07:51 29 22 25 74 260° 3 - 30.36 30.37 10 FEW035 None
2018-10-21 06:51 29 21 24 71 270° 5 - 30.36 30.38 10 FEW035 6-hr Min Temp (7am): 28.0°F
6-hr Max Temp (7am): 30.9°F
2018-10-21 05:51 29 21 20 71 270° 10 - 30.36 30.38 10 FEW035 None
2018-10-21 04:51 30 21 22 68 280° 8 - 30.35 30.37 10 FEW045 None
2018-10-21 03:51 30 21 22 68 280° 8 - 30.35 30.37 10 FEW045 None
2018-10-21 02:51 30 21 23 68 290° 7 - 30.33 30.35 10 FEW045 None
2018-10-21 01:51 30 21 24 68 290° 6 - 30.33 30.34 10 FEW045 None
2018-10-21 00:51 31 20 24 63 300° 7 - 30.32 30.34 10 FEW045 6-hr Min Temp (1am): 30.9°F
6-hr Max Temp (1am): 39.0°F
24-hr Min Temp (1am): 30.9°F
24-hr Max Temp (1am): 51.1°F
2018-10-20 23:51 33 20 26 58 310° 8 - 30.32 30.33 10 FEW045 None
2018-10-20 22:51 34 19 29 53 310° 6 - 30.31 30.32 10 FEW045 None

Support USWX by starting your Amazon purchase here.